Time;durP1;ratioP1;P1;durP2;ratioP2;P2;SDS_P1;SDS_P2;PMS_P1;PMS_P2;Temp;Humidity;BMP_temperature;BMP_pressure;BME280_temperature;BME280_humidity;BME280_pressure;Samples;Min_cycle;Max_cycle;Signal;HPM_P1;HPM_P2
2023/07/08 00:00:54;;;;;;;4.90;2.50;;;;;;;17.01;63.83;101307.54;107909;1263;61311;-72
2023/07/08 00:03:21;;;;;;;6.20;2.90;;;;;;;17.00;63.80;101307.37;107559;1257;61279;-73
2023/07/08 00:05:52;;;;;;;5.70;3.00;;;;;;;16.97;63.85;101305.89;107367;1257;74674;-74
2023/07/08 00:08:20;;;;;;;5.00;3.10;;;;;;;16.95;64.25;101305.86;107410;1257;69449;-73
2023/07/08 00:10:47;;;;;;;5.90;2.70;;;;;;;16.92;64.42;101303.02;107360;1258;71161;-73
2023/07/08 00:13:14;;;;;;;5.30;2.80;;;;;;;16.89;64.69;101307.30;107450;1257;61131;-73
2023/07/08 00:15:41;;;;;;;7.40;2.80;;;;;;;16.86;64.89;101305.73;107936;1257;59361;-73
2023/07/08 00:18:14;;;;;;;5.50;2.80;;;;;;;16.81;65.09;101301.21;107559;1257;73783;-73
2023/07/08 00:20:49;;;;;;;3.80;2.70;;;;;;;16.79;65.29;101303.48;107416;1257;71189;-74
2023/07/08 00:23:21;;;;;;;4.10;2.60;;;;;;;16.74;65.47;101301.40;107477;1256;71050;-72
2023/07/08 00:25:48;;;;;;;6.00;3.00;;;;;;;16.70;65.34;101304.48;107321;1257;61358;-73
2023/07/08 00:28:17;;;;;;;4.80;2.80;;;;;;;16.66;65.51;101300.34;107272;1261;61151;-73
2023/07/08 00:30:44;;;;;;;6.20;2.90;;;;;;;16.61;65.66;101299.14;107527;1257;74842;-73
2023/07/08 00:33:11;;;;;;;5.20;3.70;;;;;;;16.56;65.70;101304.80;107835;1257;70980;-73
2023/07/08 00:35:42;;;;;;;5.40;2.80;;;;;;;16.53;65.95;101300.62;107446;1258;72878;-74
2023/07/08 00:38:15;;;;;;;6.40;3.10;;;;;;;16.48;66.21;101301.22;107368;1257;61454;-73
2023/07/08 00:41:02;;;;;;;5.70;2.80;;;;;;;16.43;66.25;101298.56;107714;1257;61369;-74
2023/07/08 00:43:39;;;;;;;8.60;2.70;;;;;;;16.39;66.47;101292.27;106908;1259;618658;-72
2023/07/08 00:46:26;;;;;;;4.90;2.60;;;;;;;16.34;66.37;101289.90;107822;1257;71794;-69
2023/07/08 00:49:15;;;;;;;5.60;2.70;;;;;;;16.29;66.67;101287.61;107363;1257;71789;-71
2023/07/08 00:51:43;;;;;;;6.50;2.80;;;;;;;16.25;66.77;101284.92;108029;1258;61348;-71
2023/07/08 00:54:13;;;;;;;7.10;3.00;;;;;;;16.22;66.75;101283.37;107664;1256;61744;-71
2023/07/08 00:57:02;;;;;;;4.60;2.80;;;;;;;16.18;66.98;101286.36;107608;1257;73468;-72
2023/07/08 00:59:34;;;;;;;6.90;3.10;;;;;;;16.15;67.10;101286.10;107737;1256;71081;-73
2023/07/08 01:02:06;;;;;;;8.10;3.30;;;;;;;16.12;67.17;101287.45;107474;1256;72761;-71
2023/07/08 01:04:42;;;;;;;6.30;3.20;;;;;;;16.11;67.37;101284.43;107482;1257;60442;-71
2023/07/08 01:07:09;;;;;;;4.80;2.90;;;;;;;16.10;67.20;101286.61;107777;1257;61229;-71
2023/07/08 01:09:43;;;;;;;6.50;3.00;;;;;;;16.10;67.03;101286.11;108068;1256;74810;-72
2023/07/08 01:12:21;;;;;;;6.20;2.90;;;;;;;16.08;67.19;101285.36;107415;1257;70187;-72
2023/07/08 01:14:48;;;;;;;4.60;2.70;;;;;;;16.06;67.43;101278.64;107643;1257;71959;-73
2023/07/08 01:17:15;;;;;;;6.30;2.90;;;;;;;16.04;67.47;101272.65;107417;1257;62091;-72
2023/07/08 01:19:44;;;;;;;4.60;2.90;;;;;;;16.01;67.67;101271.20;107304;1256;61228;-73
2023/07/08 01:22:11;;;;;;;7.20;2.90;;;;;;;16.00;67.57;101270.36;107595;1256;73535;-73
2023/07/08 01:24:42;;;;;;;5.80;2.90;;;;;;;15.97;67.80;101269.77;107554;1256;71175;-72
2023/07/08 01:27:13;;;;;;;6.00;2.90;;;;;;;15.94;67.87;101270.53;107721;1256;72180;-74
2023/07/08 01:29:39;;;;;;;6.90;2.80;;;;;;;15.91;67.99;101268.77;107693;1256;60680;-72
2023/07/08 01:32:07;;;;;;;7.50;3.40;;;;;;;15.87;68.17;101267.61;108921;1256;60067;-72
2023/07/08 01:34:37;;;;;;;6.50;2.90;;;;;;;15.83;68.45;101263.14;107844;1257;73174;-72
2023/07/08 01:37:06;;;;;;;5.50;3.10;;;;;;;15.79;68.58;101259.08;106607;1257;71372;-73
2023/07/08 01:39:33;;;;;;;5.80;2.80;;;;;;;15.75;68.91;101261.11;106792;1256;71826;-72
2023/07/08 01:42:00;;;;;;;4.90;3.40;;;;;;;15.71;69.00;101258.30;106720;1255;61190;-72
2023/07/08 01:44:36;;;;;;;4.50;2.80;;;;;;;15.67;69.28;101260.39;106725;1256;61279;-72
2023/07/08 01:47:21;;;;;;;6.10;3.10;;;;;;;15.63;69.50;101252.66;106892;1256;74744;-71
2023/07/08 01:49:48;;;;;;;4.60;2.90;;;;;;;15.59;69.48;101252.77;106751;1256;70900;-70
2023/07/08 01:52:17;;;;;;;5.50;3.30;;;;;;;15.56;69.60;101248.77;106989;1256;71569;-71
2023/07/08 01:54:44;;;;;;;5.50;3.10;;;;;;;15.53;69.65;101246.35;106478;1257;61423;-72
2023/07/08 01:57:11;;;;;;;4.70;3.20;;;;;;;15.49;69.85;101247.27;106845;1256;59804;-72
2023/07/08 01:59:38;;;;;;;4.40;3.20;;;;;;;15.47;69.98;101246.84;106835;1256;74634;-72
2023/07/08 02:02:04;;;;;;;4.80;3.30;;;;;;;15.44;70.42;101245.38;107631;1256;70801;-71
2023/07/08 02:04:31;;;;;;;5.30;3.10;;;;;;;15.42;70.29;101244.99;107099;1257;71831;-72
2023/07/08 02:07:00;;;;;;;4.40;3.20;;;;;;;15.39;70.45;101244.58;108622;1256;62032;-72
2023/07/08 02:09:27;;;;;;;4.50;3.30;;;;;;;15.37;70.48;101242.56;106732;1256;61112;-73
2023/07/08 02:11:55;;;;;;;4.70;3.40;;;;;;;15.35;70.84;101237.41;106632;1255;73011;-72
2023/07/08 02:14:22;;;;;;;5.40;3.50;;;;;;;15.34;71.00;101232.20;106707;1257;70042;-72
2023/07/08 02:16:49;;;;;;;4.60;3.20;;;;;;;15.33;71.00;101229.40;106776;1256;71691;-72
2023/07/08 02:19:16;;;;;;;4.80;3.30;;;;;;;15.30;71.14;101225.11;106644;1257;61372;-72
2023/07/08 02:21:43;;;;;;;6.80;3.50;;;;;;;15.27;71.29;101226.86;106575;1256;61280;-73
2023/07/08 02:24:10;;;;;;;5.60;3.30;;;;;;;15.24;71.50;101225.59;106617;1256;74022;-72
2023/07/08 02:26:36;;;;;;;5.90;3.50;;;;;;;15.21;71.42;101222.45;107623;1256;69889;-72
2023/07/08 02:29:03;;;;;;;5.50;3.30;;;;;;;15.19;71.71;101223.98;106390;1256;71388;-72
2023/07/08 02:31:31;;;;;;;6.90;3.60;;;;;;;15.16;71.97;101225.77;107455;1256;62706;-73
2023/07/08 02:33:58;;;;;;;6.00;3.60;;;;;;;15.14;72.12;101228.91;107859;1255;59113;-72
2023/07/08 02:36:25;;;;;;;6.50;3.70;;;;;;;15.12;72.10;101232.59;107923;1256;74024;-73
2023/07/08 02:38:55;;;;;;;5.00;3.50;;;;;;;15.09;72.18;101237.10;107738;1256;71332;-72
2023/07/08 02:41:22;;;;;;;4.80;3.30;;;;;;;15.07;72.18;101236.50;107445;1256;72868;-72
2023/07/08 02:43:49;;;;;;;8.10;4.30;;;;;;;15.05;72.38;101231.38;107675;1257;61458;-73
2023/07/08 02:46:15;;;;;;;5.00;3.80;;;;;;;15.02;72.50;101231.89;107863;1256;60325;-73
2023/07/08 02:48:42;;;;;;;8.40;3.70;;;;;;;15.00;72.75;101232.34;107046;1255;74789;-75
2023/07/08 02:51:09;;;;;;;5.80;3.50;;;;;;;14.98;72.75;101238.71;106867;1258;69785;-72
2023/07/08 02:53:36;;;;;;;5.60;3.60;;;;;;;14.93;73.21;101229.30;106932;1257;71500;-72
2023/07/08 02:56:03;;;;;;;5.20;3.60;;;;;;;14.92;73.00;101229.86;108099;1256;64502;-72
2023/07/08 02:58:30;;;;;;;5.60;4.00;;;;;;;14.88;73.31;101226.54;107359;1256;61270;-72
2023/07/08 03:01:00;;;;;;;6.80;3.70;;;;;;;14.85;73.49;101223.21;107193;1256;73560;-71
2023/07/08 03:03:31;;;;;;;7.70;4.00;;;;;;;14.81;74.06;101224.98;106905;1259;70036;-72
2023/07/08 03:06:05;;;;;;;7.70;4.10;;;;;;;14.77;74.22;101226.14;107466;1256;72472;-72
2023/07/08 03:08:32;;;;;;;5.10;3.70;;;;;;;14.74;74.44;101218.67;106997;1256;61874;-72
2023/07/08 03:11:04;;;;;;;5.90;4.10;;;;;;;14.72;74.52;101215.80;107021;1256;60913;-73
2023/07/08 03:13:32;;;;;;;5.80;3.90;;;;;;;14.69;75.07;101217.68;107056;1259;74095;-72
2023/07/08 03:15:59;;;;;;;8.10;4.20;;;;;;;14.67;75.05;101218.11;107133;1256;70555;-72
2023/07/08 03:18:26;;;;;;;8.00;4.10;;;;;;;14.66;75.21;101217.73;107155;1257;70649;-72
2023/07/08 03:20:55;;;;;;;5.50;4.60;;;;;;;14.65;75.46;101219.64;107364;1256;61729;-71
2023/07/08 03:23:24;;;;;;;6.80;4.20;;;;;;;14.64;75.62;101216.35;107019;1256;61753;-71
2023/07/08 03:25:51;;;;;;;13.70;5.70;;;;;;;14.63;75.84;101216.66;107188;1256;74761;-74
2023/07/08 03:28:17;;;;;;;7.70;4.40;;;;;;;14.64;76.05;101218.44;107167;1256;70381;-71
2023/07/08 03:30:52;;;;;;;6.00;3.90;;;;;;;14.66;75.87;101219.33;107148;1257;61957;-71
2023/07/08 03:33:19;;;;;;;7.20;4.20;;;;;;;14.67;76.01;101218.80;107091;1256;61190;-71
2023/07/08 03:35:46;;;;;;;5.30;4.10;;;;;;;14.68;76.17;101219.96;107125;1256;61193;-72
2023/07/08 03:38:13;;;;;;;6.00;4.30;;;;;;;14.67;76.44;101214.66;106881;1256;73174;-71
2023/07/08 03:40:40;;;;;;;5.10;4.10;;;;;;;14.69;76.30;101211.63;107592;1257;71851;-71
2023/07/08 03:43:07;;;;;;;7.90;4.20;;;;;;;14.71;76.28;101209.72;106988;1256;71196;-71
2023/07/08 03:45:34;;;;;;;5.70;4.10;;;;;;;14.72;76.51;101210.76;106932;1257;63160;-71
2023/07/08 03:48:00;;;;;;;5.70;4.30;;;;;;;14.74;76.38;101211.02;107267;1256;61155;-71
2023/07/08 03:50:28;;;;;;;7.30;4.70;;;;;;;14.77;76.56;101214.25;107115;1256;73487;-72
2023/07/08 03:52:55;;;;;;;6.10;4.50;;;;;;;14.78;76.53;101217.15;106944;1257;69939;-72
2023/07/08 03:55:23;;;;;;;5.40;4.10;;;;;;;14.80;76.64;101219.77;106946;1256;72316;-72
2023/07/08 03:57:49;;;;;;;8.20;4.40;;;;;;;14.82;76.82;101218.30;107445;1255;61055;-71
2023/07/08 04:00:16;;;;;;;5.60;4.30;;;;;;;14.82;76.97;101215.96;107306;1256;61240;-71
2023/07/08 04:02:45;;;;;;;6.60;4.20;;;;;;;14.84;76.98;101219.30;107228;1255;75112;-72
2023/07/08 04:05:20;;;;;;;8.40;4.30;;;;;;;14.84;77.07;101221.26;107015;1257;71120;-72
2023/07/08 04:07:48;;;;;;;6.40;4.40;;;;;;;14.83;77.15;101224.48;107182;1257;72841;-73
2023/07/08 04:10:16;;;;;;;7.90;4.50;;;;;;;14.84;77.41;101222.27;107201;1256;61270;-70
2023/07/08 04:12:43;;;;;;;5.60;4.40;;;;;;;14.86;77.56;101225.86;106959;1256;61251;-71
2023/07/08 04:15:11;;;;;;;5.30;4.60;;;;;;;14.89;77.67;101223.75;107438;1256;73431;-72
2023/07/08 04:17:45;;;;;;;7.30;4.50;;;;;;;14.94;77.75;101221.61;107289;1256;69899;-70
2023/07/08 04:20:14;;;;;;;7.20;5.20;;;;;;;14.99;77.73;101223.40;107441;1256;72707;-71
2023/07/08 04:22:41;;;;;;;6.10;4.20;;;;;;;15.05;77.72;101224.02;106955;1256;60863;-70
2023/07/08 04:25:10;;;;;;;7.00;4.50;;;;;;;15.12;77.57;101224.70;107189;1257;61235;-70
2023/07/08 04:27:38;;;;;;;5.70;4.50;;;;;;;15.18;77.67;101226.81;106998;1256;73151;-71
2023/07/08 04:30:06;;;;;;;6.40;4.50;;;;;;;15.25;77.65;101231.06;107173;1256;70835;-73
2023/07/08 04:32:33;;;;;;;7.60;4.40;;;;;;;15.32;77.51;101232.33;107116;1256;72813;-72
2023/07/08 04:35:00;;;;;;;5.90;4.50;;;;;;;15.38;77.54;101232.66;107722;1256;61976;-72
2023/07/08 04:37:27;;;;;;;6.60;4.20;;;;;;;15.44;77.47;101237.52;106911;1256;61372;-71
2023/07/08 04:39:54;;;;;;;4.90;4.30;;;;;;;15.52;77.25;101238.60;107271;1256;74533;-71
2023/07/08 04:42:20;;;;;;;7.20;4.40;;;;;;;15.59;77.07;101240.52;107074;1255;72312;-71
2023/07/08 04:44:49;;;;;;;7.60;4.50;;;;;;;15.66;76.70;101242.33;107220;1256;73232;-71
2023/07/08 04:47:16;;;;;;;6.80;4.30;;;;;;;15.73;76.42;101239.77;107241;1256;61301;-73
2023/07/08 04:49:43;;;;;;;7.50;4.20;;;;;;;15.82;76.05;101238.92;107213;1256;61260;-73
2023/07/08 04:52:10;;;;;;;5.90;4.10;;;;;;;15.90;75.73;101240.83;107657;1257;73713;-72
2023/07/08 04:54:37;;;;;;;5.40;4.10;;;;;;;16.00;75.38;101241.59;107236;1257;70705;-72
2023/07/08 04:57:04;;;;;;;7.70;4.20;;;;;;;16.09;74.95;101245.59;106762;1257;73953;-72
2023/07/08 04:59:34;;;;;;;8.10;4.40;;;;;;;16.18;74.58;101244.80;106809;1259;60605;-72
2023/07/08 05:02:01;;;;;;;6.70;4.30;;;;;;;16.27;74.30;101238.02;107139;1256;60699;-71
2023/07/08 05:04:28;;;;;;;6.60;4.60;;;;;;;16.37;74.18;101237.16;107096;1256;73476;-71
2023/07/08 05:06:55;;;;;;;6.10;4.30;;;;;;;16.46;73.94;101238.21;106693;1256;70033;-71
2023/07/08 05:09:26;;;;;;;6.70;4.20;;;;;;;16.55;73.97;101237.13;107322;1256;72701;-72
2023/07/08 05:11:53;;;;;;;5.40;4.40;;;;;;;16.63;73.65;101240.92;107116;1257;61157;-73
2023/07/08 05:14:22;;;;;;;5.40;4.10;;;;;;;16.71;73.24;101242.90;106925;1255;61279;-72
2023/07/08 05:16:49;;;;;;;5.90;4.30;;;;;;;16.79;73.21;101245.29;106878;1256;74605;-71
2023/07/08 05:19:18;;;;;;;6.40;4.30;;;;;;;16.87;73.22;101245.20;106825;1256;69986;-72
2023/07/08 05:21:45;;;;;;;6.10;4.10;;;;;;;16.97;72.97;101246.38;107145;1256;71772;-72
2023/07/08 05:24:14;;;;;;;5.70;4.00;;;;;;;17.09;72.67;101247.23;106887;1256;61306;-72
2023/07/08 05:26:44;;;;;;;4.80;3.90;;;;;;;17.20;72.46;101245.54;107407;1256;61625;-72
2023/07/08 05:29:11;;;;;;;5.50;4.10;;;;;;;17.30;72.02;101245.63;106964;1257;75908;-71
2023/07/08 05:31:37;;;;;;;6.30;4.10;;;;;;;17.41;71.58;101248.84;106858;1256;70016;-71
2023/07/08 05:34:14;;;;;;;6.10;3.90;;;;;;;17.52;71.11;101248.06;106888;1256;72729;-71
2023/07/08 05:36:42;;;;;;;5.60;4.20;;;;;;;17.63;70.64;101246.27;106967;1256;62081;-71
2023/07/08 05:39:09;;;;;;;5.30;3.90;;;;;;;17.73;70.00;101251.05;106789;1256;61356;-71
2023/07/08 05:41:36;;;;;;;6.80;4.10;;;;;;;17.85;69.65;101246.11;106798;1257;73393;-72
2023/07/08 05:44:03;;;;;;;6.70;3.90;;;;;;;17.98;69.24;101245.74;107409;1259;71368;-72
2023/07/08 05:46:29;;;;;;;6.40;3.90;;;;;;;18.10;69.13;101245.16;107099;1256;71606;-72
2023/07/08 05:48:56;;;;;;;6.40;3.90;;;;;;;18.21;68.91;101245.14;107115;1256;62085;-72
2023/07/08 05:51:27;;;;;;;8.80;4.30;;;;;;;18.29;68.41;101245.57;108265;1256;61151;-73
2023/07/08 05:53:54;;;;;;;5.40;3.90;;;;;;;18.37;68.13;101240.36;108785;1256;74415;-69
2023/07/08 05:56:21;;;;;;;5.90;4.10;;;;;;;18.48;68.26;101239.36;108484;1257;71809;-71
2023/07/08 05:58:48;;;;;;;6.60;3.70;;;;;;;18.59;68.12;101235.92;107340;1256;72285;-72
2023/07/08 06:01:15;;;;;;;6.40;4.00;;;;;;;18.71;67.74;101236.73;108087;1256;62465;-70
2023/07/08 06:03:41;;;;;;;4.60;3.80;;;;;;;18.84;67.42;101239.08;107546;1255;61346;-73
2023/07/08 06:06:09;;;;;;;6.40;3.70;;;;;;;18.96;67.13;101235.23;106945;1256;74752;-70
2023/07/08 06:08:35;;;;;;;5.30;3.80;;;;;;;19.08;66.68;101230.64;107251;1256;71146;-69
2023/07/08 06:11:02;;;;;;;6.70;3.70;;;;;;;19.22;66.71;101233.67;107144;1255;72704;-70
2023/07/08 06:13:30;;;;;;;4.80;3.50;;;;;;;19.37;66.11;101233.94;107145;1255;59596;-70
2023/07/08 06:15:56;;;;;;;5.40;3.90;;;;;;;19.46;65.34;101232.77;106889;1256;60104;-72
2023/07/08 06:18:23;;;;;;;6.10;3.50;;;;;;;19.56;64.59;101239.27;107107;1259;74920;-70
2023/07/08 06:20:51;;;;;;;8.70;4.60;;;;;;;19.65;63.94;101234.71;107186;1255;71215;-71
2023/07/08 06:23:18;;;;;;;5.70;3.80;;;;;;;19.77;63.52;101238.39;106969;1259;71497;-71
2023/07/08 06:25:45;;;;;;;5.00;3.60;;;;;;;19.88;62.65;101234.42;107244;1257;62064;-71
2023/07/08 06:28:11;;;;;;;6.40;3.40;;;;;;;19.98;62.58;101233.45;107067;1255;61285;-70
2023/07/08 06:30:38;;;;;;;5.80;3.90;;;;;;;20.11;62.47;101234.52;106950;1257;74751;-71
2023/07/08 06:33:05;;;;;;;5.20;3.50;;;;;;;20.25;62.29;101233.45;107164;1256;71120;-70
2023/07/08 06:35:32;;;;;;;5.80;3.40;;;;;;;20.38;61.71;101235.71;107081;1256;72707;-71
2023/07/08 06:37:59;;;;;;;4.00;3.20;;;;;;;20.52;61.46;101232.67;107130;1256;61383;-71
2023/07/08 06:40:26;;;;;;;6.30;3.50;;;;;;;20.66;61.25;101226.98;107194;1257;60816;-71
2023/07/08 06:42:53;;;;;;;4.90;3.50;;;;;;;20.79;60.90;101226.76;107011;1259;75264;-70
2023/07/08 06:45:20;;;;;;;4.70;3.50;;;;;;;20.92;60.81;101227.73;107124;1256;70066;-70
2023/07/08 06:47:47;;;;;;;6.30;3.60;;;;;;;21.06;60.25;101230.63;107553;1256;71557;-71
2023/07/08 06:50:14;;;;;;;5.80;3.30;;;;;;;21.17;59.71;101227.71;107066;1255;62421;-71
2023/07/08 06:52:41;;;;;;;4.30;3.50;;;;;;;21.27;58.92;101230.31;107006;1256;61155;-70
2023/07/08 06:55:10;;;;;;;5.40;3.30;;;;;;;21.37;58.41;101230.67;107326;1256;74807;-70
2023/07/08 06:57:38;;;;;;;7.10;3.30;;;;;;;21.48;58.32;101232.41;107316;1257;70495;-70
2023/07/08 07:00:07;;;;;;;5.70;3.60;;;;;;;21.61;57.78;101233.95;107090;1256;71519;-72
2023/07/08 07:02:37;;;;;;;7.50;3.80;;;;;;;21.75;57.33;101231.60;106902;1256;61158;-72
2023/07/08 07:05:04;;;;;;;4.90;3.30;;;;;;;21.87;57.20;101229.70;107331;1255;61378;-73
2023/07/08 07:07:31;;;;;;;5.40;3.30;;;;;;;21.97;57.08;101232.80;108553;1256;74158;-72
2023/07/08 07:09:58;;;;;;;4.70;3.40;;;;;;;22.08;56.81;101231.30;108820;1256;71060;-73
2023/07/08 07:12:26;;;;;;;4.90;3.20;;;;;;;22.18;56.46;101232.47;108942;1256;71180;-72
2023/07/08 07:14:53;;;;;;;5.30;3.20;;;;;;;22.26;56.07;101233.91;108848;1256;60235;-73
2023/07/08 07:17:21;;;;;;;7.60;4.20;;;;;;;22.37;56.14;101234.17;108960;1256;59181;-70
2023/07/08 07:19:48;;;;;;;11.50;3.30;;;;;;;22.48;55.58;101233.61;108992;1256;73357;-70
2023/07/08 07:22:15;;;;;;;6.20;3.50;;;;;;;22.57;55.16;101226.77;107565;1259;69424;-72
2023/07/08 07:24:42;;;;;;;5.10;3.40;;;;;;;22.68;55.36;101224.75;107029;1256;71519;-72
2023/07/08 07:27:10;;;;;;;4.80;3.20;;;;;;;22.79;54.95;101224.41;106606;1256;61330;-71
2023/07/08 07:29:48;;;;;;;7.70;3.40;;;;;;;22.89;54.84;101226.05;106847;1256;59608;-71
2023/07/08 07:32:17;;;;;;;4.20;3.30;;;;;;;23.01;54.07;101226.93;106606;1262;75705;-71
2023/07/08 07:34:46;;;;;;;7.70;4.10;;;;;;;23.12;53.77;101225.55;107765;1256;71190;-72
2023/07/08 07:37:15;;;;;;;4.50;3.10;;;;;;;23.27;54.01;101225.66;106641;1257;71535;-73
2023/07/08 07:39:42;;;;;;;4.30;3.30;;;;;;;23.36;52.92;101226.30;106787;1257;61306;-73
2023/07/08 07:42:10;;;;;;;5.30;2.90;;;;;;;23.45;52.99;101226.45;106519;1256;61276;-71
2023/07/08 07:44:39;;;;;;;4.70;3.20;;;;;;;23.57;53.26;101222.37;107648;1259;74217;-73
2023/07/08 07:47:07;;;;;;;5.30;3.20;;;;;;;23.71;52.59;101225.67;107095;1256;71910;-72
2023/07/08 07:49:34;;;;;;;5.50;3.10;;;;;;;23.84;52.84;101226.20;106680;1256;71131;-72
2023/07/08 07:52:01;;;;;;;5.00;2.90;;;;;;;23.97;52.34;101224.10;106620;1256;61353;-72
2023/07/08 07:54:28;;;;;;;4.30;3.30;;;;;;;24.11;52.15;101225.02;106521;1256;60387;-71
2023/07/08 07:56:55;;;;;;;3.90;2.80;;;;;;;24.25;51.89;101228.16;106520;1256;74081;-72
2023/07/08 07:59:21;;;;;;;4.00;2.80;;;;;;;24.41;51.77;101226.67;106546;1256;71258;-72
2023/07/08 08:01:48;;;;;;;4.70;2.90;;;;;;;24.57;51.23;101227.70;106728;1256;72694;-71
2023/07/08 08:04:15;;;;;;;6.10;3.10;;;;;;;24.74;51.15;101227.68;106847;1255;61266;-69
2023/07/08 08:06:45;;;;;;;4.70;2.80;;;;;;;24.87;50.68;101221.23;106511;1256;61187;-73
2023/07/08 08:09:11;;;;;;;4.90;3.20;;;;;;;24.99;50.00;101220.75;106693;1256;73455;-72
2023/07/08 08:11:38;;;;;;;5.60;3.40;;;;;;;25.08;49.85;101217.40;106850;1256;69794;-72
2023/07/08 08:14:05;;;;;;;7.10;3.00;;;;;;;25.16;49.59;101215.63;106307;1258;72691;-72
2023/07/08 08:16:32;;;;;;;4.30;3.10;;;;;;;25.30;49.32;101217.21;106580;1256;61365;-73
2023/07/08 08:18:59;;;;;;;5.00;3.20;;;;;;;25.41;48.64;101214.84;106580;1256;61168;-72
2023/07/08 08:21:28;;;;;;;4.70;3.00;;;;;;;25.53;48.74;101214.86;107178;1257;73778;-72
2023/07/08 08:23:55;;;;;;;4.40;3.10;;;;;;;25.65;48.18;101215.98;106575;1256;70018;-72
2023/07/08 08:26:22;;;;;;;6.20;3.00;;;;;;;25.77;48.28;101216.63;106947;1256;61272;-71
2023/07/08 08:28:59;;;;;;;5.70;3.00;;;;;;;25.91;47.79;101218.51;108861;1256;61697;-73
2023/07/08 08:31:32;;;;;;;5.30;2.80;;;;;;;26.03;47.22;101224.27;108711;1256;59769;-73
2023/07/08 08:33:58;;;;;;;4.50;2.70;;;;;;;26.15;47.38;101223.67;108915;1255;73746;-73
2023/07/08 08:36:25;;;;;;;9.80;3.30;;;;;;;26.30;47.35;101221.55;108131;1256;71619;-72
2023/07/08 08:38:52;;;;;;;4.40;2.80;;;;;;;26.44;46.45;101225.88;107530;1257;72376;-72
2023/07/08 08:41:30;;;;;;;3.70;2.60;;;;;;;26.59;46.14;101226.27;106626;1257;61243;-71
2023/07/08 08:43:56;;;;;;;5.80;2.90;;;;;;;26.73;45.82;101223.63;106524;1256;61243;-73
2023/07/08 08:46:41;;;;;;;4.80;2.80;;;;;;;26.85;45.55;101225.32;106452;1257;74036;-72
2023/07/08 08:49:21;;;;;;;5.90;2.70;;;;;;;26.99;45.09;101220.59;106712;1257;71144;-71
2023/07/08 08:51:49;;;;;;;3.10;2.50;;;;;;;27.14;45.24;101220.36;107370;1256;71552;-71
2023/07/08 08:54:16;;;;;;;5.10;3.00;;;;;;;27.28;44.46;101223.59;108502;1256;61886;-70
2023/07/08 08:56:53;;;;;;;5.60;2.70;;;;;;;27.38;44.25;101222.95;107789;1259;61983;-72
2023/07/08 08:59:34;;;;;;;3.60;2.50;;;;;;;27.51;44.36;101221.98;107450;1256;74705;-72
2023/07/08 09:02:19;;;;;;;4.10;2.60;;;;;;;27.65;43.64;101217.81;107722;1256;70487;-71
2023/07/08 09:04:46;;;;;;;5.00;2.70;;;;;;;27.79;42.93;101216.02;106306;1256;72833;-71
2023/07/08 09:07:16;;;;;;;7.70;2.70;;;;;;;27.91;43.03;101220.09;106548;1256;61223;-69
2023/07/08 09:09:53;;;;;;;6.20;2.60;;;;;;;28.02;42.83;101215.80;106522;1256;61190;-72
2023/07/08 09:12:24;;;;;;;5.50;2.50;;;;;;;28.12;42.39;101218.30;106844;1256;73695;-69
2023/07/08 09:14:51;;;;;;;6.00;2.70;;;;;;;28.20;42.13;101216.58;107142;1256;70075;-68
2023/07/08 09:17:23;;;;;;;6.00;2.50;;;;;;;28.24;42.48;101213.77;106649;1256;71429;-69
2023/07/08 09:19:59;;;;;;;4.40;2.70;;;;;;;28.33;42.47;101216.02;106376;1256;61361;-70
2023/07/08 09:22:35;;;;;;;5.80;2.80;;;;;;;28.41;42.21;101214.21;106529;1256;62126;-69
2023/07/08 09:25:12;;;;;;;6.90;2.80;;;;;;;28.52;42.16;101211.23;106939;1259;75424;-70
2023/07/08 09:27:39;;;;;;;4.50;2.90;;;;;;;28.60;40.36;101206.05;106925;1256;71158;-71
2023/07/08 09:30:13;;;;;;;4.30;2.90;;;;;;;28.69;40.05;101205.02;107394;1256;72747;-71
2023/07/08 09:32:40;;;;;;;5.20;3.00;;;;;;;28.80;40.46;101208.58;106500;1257;62480;-71
2023/07/08 09:35:09;;;;;;;4.30;2.70;;;;;;;28.92;39.95;101206.46;106551;1256;61253;-71
2023/07/08 09:37:37;;;;;;;6.20;2.50;;;;;;;29.04;39.58;101202.98;106962;1257;74782;-71
2023/07/08 09:40:19;;;;;;;4.90;2.50;;;;;;;29.16;39.79;101199.06;106660;1262;70005;-70
2023/07/08 09:42:51;;;;;;;5.90;3.40;;;;;;;29.30;39.58;101200.28;106654;1256;71641;-71
2023/07/08 09:45:24;;;;;;;5.00;2.90;;;;;;;29.41;38.95;101197.45;106909;1259;61202;-72
2023/07/08 09:47:54;;;;;;;7.20;3.00;;;;;;;29.45;37.94;101196.09;106301;1257;61261;-70
2023/07/08 09:50:31;;;;;;;6.10;2.70;;;;;;;29.51;38.75;101198.70;106773;1256;74075;-74
2023/07/08 09:53:01;;;;;;;6.00;2.80;;;;;;;29.61;38.23;101195.52;106564;1259;69693;-74
2023/07/08 09:55:28;;;;;;;5.70;3.00;;;;;;;29.71;38.22;101198.45;106375;1257;71476;-71
2023/07/08 09:57:58;;;;;;;5.20;3.00;;;;;;;29.80;37.22;101199.16;106768;1257;60386;-72
2023/07/08 10:00:29;;;;;;;3.80;2.70;;;;;;;29.90;36.55;101197.88;106832;1256;61322;-73
2023/07/08 10:02:58;;;;;;;3.70;2.40;;;;;;;30.01;36.77;101200.44;106552;1256;73564;-72
2023/07/08 10:05:35;;;;;;;4.40;2.70;;;;;;;30.12;37.17;101197.93;108342;1259;69942;-73
2023/07/08 10:08:10;;;;;;;5.00;2.80;;;;;;;30.25;36.42;101196.88;106776;1257;71539;-76
2023/07/08 10:10:38;;;;;;;6.40;2.90;;;;;;;30.39;37.16;101201.09;106931;1256;61282;-75
2023/07/08 10:13:24;;;;;;;4.90;2.70;;;;;;;30.48;37.01;101196.84;106921;1255;61852;-72
2023/07/08 10:16:20;;;;;;;5.10;2.70;;;;;;;30.61;35.98;101199.61;107376;1257;74721;-73
2023/07/08 10:18:47;;;;;;;6.40;2.60;;;;;;;30.73;35.78;101195.14;106406;1256;71259;-72
2023/07/08 10:21:31;;;;;;;4.80;2.60;;;;;;;30.81;35.01;101197.52;106469;1261;72715;-75
2023/07/08 10:24:30;;;;;;;5.50;2.60;;;;;;;30.93;35.29;101194.85;106710;1256;61436;-73
2023/07/08 10:27:34;;;;;;;3.30;2.30;;;;;;;31.07;34.89;101188.77;107057;1256;61295;-74
2023/07/08 10:30:06;;;;;;;4.90;2.50;;;;;;;31.21;34.27;101192.70;106527;1257;73476;-73
2023/07/08 10:33:08;;;;;;;5.40;3.00;;;;;;;31.27;33.79;101188.36;106866;1256;71274;-71
2023/07/08 10:35:39;;;;;;;4.30;2.40;;;;;;;31.30;32.54;101194.61;106800;1261;73222;-73
2023/07/08 10:38:24;;;;;;;5.60;2.60;;;;;;;31.32;33.16;101192.83;107640;1256;61147;-73
2023/07/08 10:41:09;;;;;;;6.00;2.30;;;;;;;31.41;33.55;101189.48;106431;1256;59569;-73
2023/07/08 10:43:54;;;;;;;5.70;2.40;;;;;;;31.47;33.45;101188.34;106471;1256;73533;-74
2023/07/08 10:46:30;;;;;;;6.60;2.40;;;;;;;31.59;32.98;101182.95;107033;1257;69962;-72
2023/07/08 10:49:21;;;;;;;3.80;2.40;;;;;;;31.69;33.09;101184.88;106850;1257;70679;-73
2023/07/08 10:52:30;;;;;;;4.80;2.40;;;;;;;31.78;32.46;101180.90;106948;1256;61006;-74
2023/07/08 10:55:19;;;;;;;5.10;2.40;;;;;;;31.90;32.87;101182.64;108415;1255;59123;-71
2023/07/08 10:58:01;;;;;;;3.90;2.50;;;;;;;32.02;31.51;101183.27;106802;1256;74507;-70
2023/07/08 11:00:52;;;;;;;6.40;2.50;;;;;;;32.06;30.40;101186.06;106795;1257;72488;-72
2023/07/08 11:03:54;;;;;;;6.40;2.40;;;;;;;32.12;30.67;101182.52;108044;1256;72297;-73
2023/07/08 11:06:38;;;;;;;3.90;2.20;;;;;;;32.23;31.60;101185.89;106711;1257;61354;-73
2023/07/08 11:09:21;;;;;;;5.40;2.60;;;;;;;32.32;31.17;101185.30;106699;1256;62816;-73
2023/07/08 11:12:04;;;;;;;4.60;2.40;;;;;;;32.43;30.98;101183.72;107840;1259;74601;-75
2023/07/08 11:14:45;;;;;;;3.00;2.20;;;;;;;32.54;30.35;101181.17;106605;1257;71306;-72
2023/07/08 11:17:30;;;;;;;4.10;2.50;;;;;;;32.66;30.61;101181.54;106867;1257;71456;-74
2023/07/08 11:20:00;;;;;;;4.30;2.50;;;;;;;32.79;29.63;101181.23;106777;1256;61170;-72
2023/07/08 11:22:30;;;;;;;3.50;2.40;;;;;;;32.86;28.88;101179.56;106651;1257;61550;-73
2023/07/08 11:25:01;;;;;;;4.20;2.40;;;;;;;32.91;28.52;101172.67;106738;1256;73197;-72
2023/07/08 11:27:41;;;;;;;5.10;2.60;;;;;;;32.94;28.67;101169.75;106924;1257;71686;-73
2023/07/08 11:30:11;;;;;;;4.60;2.60;;;;;;;33.02;28.25;101172.70;106879;1256;70600;-72
2023/07/08 11:32:39;;;;;;;4.50;2.50;;;;;;;33.08;27.32;101165.70;106840;1257;61366;-73